Meteo Giornale » Osservazioni meteo Italia » Trieste

ore: 18:55 - Osservazioni Meteo Trieste
Lat. 45° 39' N Lon. 13° 45' E Alt. 8 metri s.l.m.

sereno Europe/Rome

27 °C

Sereno

Temp. 24 Ore

21 °C

29 °C

Nord

0 Km/h

Dew point 19 °C

Umidità 61 %

Visibilità  10 Km

Il sole sorge alle ore 05:13

Il sole tramonta alle ore 20:59

Data e Ora Cielo e Fenomeni T °C DP °C Um. % Pres. hPa Vis. km Vento km/h
Oggi h: 18:55 sereno Sereno 27 19 61 1012 10 N 0
Oggi h: 16:55 sereno Sereno 28 21 65 1013 10 N 1.8
Oggi h: 15:55 poco_nuvoloso Poco Nuvoloso 28 22 69 1013 10 N 1.8
Oggi h: 12:55 poco_nuvoloso Poco Nuvoloso 28 23 74 1015 10 N 1.8
Oggi h: 11:55 sereno Sereno 29 21 62 1015 10 N 1.8
Oggi h: 10:55 sereno Sereno 26 21 73 1016 10 N 0
Oggi h: 09:55 sereno Sereno 26 20 69 1016 10 N 0
Oggi h: 08:55 sereno Sereno 26 20 69 1016 10 N 0
Oggi h: 07:55 sereno Sereno 25 19 69 1016 10 N 0
Oggi h: 06:55 sereno Sereno 23 18 73 1016 10 N 0
Oggi h: 05:55 sereno Sereno 21 17 77 1016 10 N 0
Oggi h: 04:55 sereno Sereno 21 17 77 1017 10 N 0
Oggi h: 03:55 sereno Sereno 22 18 78 1017 10 N 0
Oggi h: 02:55 sereno Sereno 22 17 73 1017 10 N 1.8
Oggi h: 01:55 sereno Sereno 23 18 73 1018 10 N 3.7
Oggi h: 00:55 sereno Sereno 23 16 64 1019 10 N 3.7
Ieri h: 23:55 sereno Sereno 23 17 68 1019 10 N 1.8
Ieri h: 22:55 sereno Sereno 24 16 60 1019 10 N 3.7
Ieri h: 21:55 sereno Sereno 24 18 69 1018 10 N 1.8
Ieri h: 20:55 sereno Sereno 25 21 78 1018 10 N 0
Ieri h: 19:55 sereno Sereno 27 20 65 1017 10 N 0